Time;durP1;ratioP1;P1;durP2;ratioP2;P2;SDS_P1;SDS_P2;PMS_P1;PMS_P2;Temp;Humidity;BMP_temperature;BMP_pressure;BME280_temperature;BME280_humidity;BME280_pressure;Samples;Min_cycle;Max_cycle;Signal;HPM_P1;HPM_P2
2020/12/20 00:00:59;;;;;;;11.13;9.50;;;;;;;;;;5001446;28;20214;-64
2020/12/20 00:03:25;;;;;;;11.07;9.77;;;;;;;;;;5001998;28;20182;-63
2020/12/20 00:05:50;;;;;;;10.20;9.10;;;;;;;;;;5000155;28;20210;-64
2020/12/20 00:08:15;;;;;;;11.03;9.40;;;;;;;;;;5001920;28;20187;-64
2020/12/20 00:10:41;;;;;;;9.87;8.37;;;;;;;;;;5001786;28;20210;-64
2020/12/20 00:13:06;;;;;;;10.93;9.10;;;;;;;;;;5000341;28;20191;-63
2020/12/20 00:15:31;;;;;;;9.93;8.93;;;;;;;;;;5001272;28;20206;-63
2020/12/20 00:17:56;;;;;;;10.47;9.00;;;;;;;;;;5000697;28;20208;-64
2020/12/20 00:20:22;;;;;;;10.00;8.10;;;;;;;;;;5001183;28;20208;-63
2020/12/20 00:22:47;;;;;;;10.07;9.00;;;;;;;;;;5000590;28;20191;-64
2020/12/20 00:25:13;;;;;;;11.57;8.80;;;;;;;;;;5001002;28;20939;-63
2020/12/20 00:27:39;;;;;;;10.53;8.80;;;;;;;;;;4999453;28;20224;-63
2020/12/20 00:30:05;;;;;;;10.87;9.17;;;;;;;;;;5001252;28;21113;-64
2020/12/20 00:32:30;;;;;;;9.40;8.43;;;;;;;;;;5000354;28;20596;-63
2020/12/20 00:34:56;;;;;;;11.17;9.07;;;;;;;;;;5001201;28;20190;-63
2020/12/20 00:37:21;;;;;;;11.03;8.70;;;;;;;;;;5001006;28;20199;-63
2020/12/20 00:39:47;;;;;;;8.60;7.70;;;;;;;;;;5000608;28;20218;-63
2020/12/20 00:42:12;;;;;;;10.03;8.80;;;;;;;;;;5000461;28;20305;-64
2020/12/20 00:44:38;;;;;;;10.63;8.83;;;;;;;;;;5000903;28;20755;-63
2020/12/20 00:47:04;;;;;;;10.97;8.97;;;;;;;;;;5021371;28;20987;-64
2020/12/20 00:49:30;;;;;;;9.80;8.50;;;;;;;;;;4999225;28;21026;-63
2020/12/20 00:51:57;;;;;;;10.07;8.87;;;;;;;;;;5000695;28;20224;-63
2020/12/20 00:54:23;;;;;;;9.70;8.37;;;;;;;;;;5031003;28;20187;-63
2020/12/20 00:56:49;;;;;;;10.00;8.73;;;;;;;;;;4999454;28;20191;-64
2020/12/20 00:59:15;;;;;;;10.10;8.80;;;;;;;;;;5030155;28;20217;-63
2020/12/20 01:01:40;;;;;;;10.67;8.93;;;;;;;;;;5000218;28;20264;-63
2020/12/20 01:04:07;;;;;;;11.40;9.17;;;;;;;;;;5029326;28;20191;-64
2020/12/20 01:06:33;;;;;;;11.03;8.77;;;;;;;;;;5024823;28;20218;-64
2020/12/20 01:09:16;;;;;;;10.10;8.60;;;;;;;;;;5001265;28;20213;-63
2020/12/20 01:11:41;;;;;;;9.40;8.27;;;;;;;;;;5030806;28;20295;-64
2020/12/20 01:14:07;;;;;;;10.63;8.50;;;;;;;;;;4999331;28;20195;-63
2020/12/20 01:16:35;;;;;;;10.07;8.47;;;;;;;;;;5030963;28;20194;-63
2020/12/20 01:19:00;;;;;;;9.80;8.20;;;;;;;;;;5028716;28;20236;-63
2020/12/20 01:21:26;;;;;;;11.80;8.47;;;;;;;;;;5000178;28;20193;-63
2020/12/20 01:23:52;;;;;;;11.00;8.67;;;;;;;;;;5000178;28;20706;-62
2020/12/20 01:26:17;;;;;;;9.87;8.53;;;;;;;;;;5003445;28;20208;-63
2020/12/20 01:28:43;;;;;;;10.17;7.53;;;;;;;;;;5002958;28;20247;-63
2020/12/20 01:31:09;;;;;;;10.57;8.23;;;;;;;;;;4999677;28;20205;-62
2020/12/20 01:33:53;;;;;;;9.87;7.50;;;;;;;;;;4999665;28;20713;-63
2020/12/20 01:36:19;;;;;;;9.70;7.00;;;;;;;;;;5000561;28;20273;-63
2020/12/20 01:38:53;;;;;;;10.23;8.73;;;;;;;;;;5024738;28;20323;-63
2020/12/20 01:41:19;;;;;;;10.87;8.50;;;;;;;;;;4982354;28;20218;-64
2020/12/20 01:43:49;;;;;;;8.93;7.00;;;;;;;;;;5024975;28;20216;-63
2020/12/20 01:46:22;;;;;;;10.20;8.30;;;;;;;;;;4998080;28;20893;-63
2020/12/20 01:48:49;;;;;;;9.20;7.73;;;;;;;;;;4998962;28;20283;-63
2020/12/20 01:51:14;;;;;;;9.83;7.67;;;;;;;;;;5029587;28;20361;-63
2020/12/20 01:53:46;;;;;;;10.63;8.03;;;;;;;;;;4998226;28;20667;-64
2020/12/20 01:56:12;;;;;;;11.13;7.50;;;;;;;;;;4998814;28;20192;-63
2020/12/20 01:58:40;;;;;;;10.80;8.60;;;;;;;;;;5000818;28;20194;-64
2020/12/20 02:01:12;;;;;;;10.20;7.77;;;;;;;;;;5029339;28;20689;-63
2020/12/20 02:03:45;;;;;;;9.87;8.00;;;;;;;;;;5025792;28;20210;-63
2020/12/20 02:06:21;;;;;;;9.00;7.37;;;;;;;;;;4998248;28;20267;-63
2020/12/20 02:08:54;;;;;;;10.87;8.73;;;;;;;;;;4999247;28;20186;-63
2020/12/20 02:11:19;;;;;;;11.10;9.03;;;;;;;;;;5030120;28;20210;-63
2020/12/20 02:13:50;;;;;;;9.97;8.03;;;;;;;;;;4998552;28;20187;-63
2020/12/20 02:16:19;;;;;;;12.00;9.37;;;;;;;;;;5029422;28;20191;-63
2020/12/20 02:18:45;;;;;;;12.00;8.03;;;;;;;;;;5025267;28;20235;-64
2020/12/20 02:21:14;;;;;;;11.43;8.60;;;;;;;;;;4998344;28;20260;-64
2020/12/20 02:23:42;;;;;;;12.73;9.77;;;;;;;;;;4998033;28;20264;-63
2020/12/20 02:26:11;;;;;;;11.50;9.67;;;;;;;;;;4998241;28;21118;-63
2020/12/20 02:28:36;;;;;;;11.53;9.90;;;;;;;;;;4998332;28;20189;-63
2020/12/20 02:36:37;;;;;;;11.67;9.00;;;;;;;;;;5020166;28;20304;-62
2020/12/20 02:39:09;;;;;;;10.70;9.40;;;;;;;;;;5008251;28;20277;-64
2020/12/20 02:41:54;;;;;;;11.90;8.87;;;;;;;;;;5006930;28;20185;-62
2020/12/20 02:44:20;;;;;;;11.33;9.30;;;;;;;;;;5018726;28;20251;-63
2020/12/20 02:46:47;;;;;;;12.27;10.07;;;;;;;;;;5014595;28;20829;-63
2020/12/20 02:49:21;;;;;;;11.10;9.13;;;;;;;;;;5020391;28;20195;-62
2020/12/20 02:51:48;;;;;;;12.63;9.63;;;;;;;;;;5015220;28;20942;-62
2020/12/20 02:54:14;;;;;;;12.63;9.33;;;;;;;;;;5020786;28;20269;-62
2020/12/20 02:56:43;;;;;;;12.50;9.83;;;;;;;;;;5012054;28;20549;-62
2020/12/20 02:59:08;;;;;;;11.57;9.97;;;;;;;;;;5017626;28;20649;-62
2020/12/20 03:01:34;;;;;;;12.13;10.00;;;;;;;;;;5013510;28;20215;-64
2020/12/20 03:04:02;;;;;;;14.53;9.63;;;;;;;;;;5007116;28;20283;-62
2020/12/20 03:06:28;;;;;;;12.43;9.50;;;;;;;;;;5018234;28;21002;-62
2020/12/20 03:08:58;;;;;;;11.67;10.47;;;;;;;;;;5016108;28;20192;-62
2020/12/20 03:11:24;;;;;;;11.47;8.80;;;;;;;;;;5010520;28;20192;-63
2020/12/20 03:13:49;;;;;;;11.67;9.63;;;;;;;;;;5020684;28;20218;-62
2020/12/20 03:16:15;;;;;;;10.67;8.40;;;;;;;;;;5008276;28;20283;-62
2020/12/20 03:18:41;;;;;;;12.70;10.60;;;;;;;;;;4987877;28;20742;-63
2020/12/20 03:21:07;;;;;;;12.97;9.60;;;;;;;;;;5004174;28;20622;-63
2020/12/20 03:23:49;;;;;;;12.40;9.93;;;;;;;;;;5014283;28;20264;-62
2020/12/20 03:26:49;;;;;;;11.23;9.90;;;;;;;;;;5007510;28;20220;-62
2020/12/20 03:29:36;;;;;;;11.73;9.93;;;;;;;;;;5017470;28;20186;-62
2020/12/20 03:32:12;;;;;;;11.50;9.83;;;;;;;;;;5017578;28;20656;-62
2020/12/20 03:34:43;;;;;;;12.10;9.77;;;;;;;;;;5019584;28;21009;-63
2020/12/20 03:37:19;;;;;;;12.43;9.73;;;;;;;;;;5013164;28;20192;-62
2020/12/20 03:39:53;;;;;;;12.00;9.43;;;;;;;;;;4995084;28;20195;-62
2020/12/20 03:42:18;;;;;;;13.20;9.80;;;;;;;;;;5006730;28;20774;-62
2020/12/20 03:44:44;;;;;;;12.77;10.37;;;;;;;;;;5003362;28;20204;-63
2020/12/20 03:47:10;;;;;;;11.13;8.97;;;;;;;;;;5009434;28;20211;-63
2020/12/20 03:49:38;;;;;;;11.20;8.97;;;;;;;;;;5016914;28;20189;-63
2020/12/20 03:52:03;;;;;;;11.80;8.97;;;;;;;;;;5001167;28;20203;-62
2020/12/20 03:54:41;;;;;;;12.87;9.10;;;;;;;;;;5025875;28;20222;-62
2020/12/20 03:57:08;;;;;;;10.93;9.10;;;;;;;;;;5015384;28;20199;-63
2020/12/20 03:59:39;;;;;;;12.60;9.70;;;;;;;;;;5016972;28;20302;-62
2020/12/20 04:02:06;;;;;;;12.03;9.77;;;;;;;;;;5015591;28;20196;-62
2020/12/20 04:04:32;;;;;;;11.67;9.00;;;;;;;;;;5017938;28;20214;-62
2020/12/20 04:06:57;;;;;;;11.40;9.27;;;;;;;;;;5018238;28;20213;-62
2020/12/20 04:09:23;;;;;;;12.63;9.27;;;;;;;;;;5019286;28;20187;-62
2020/12/20 04:11:56;;;;;;;12.97;9.63;;;;;;;;;;5009584;28;20192;-64
2020/12/20 04:14:23;;;;;;;11.13;9.77;;;;;;;;;;5021320;28;21087;-63
2020/12/20 04:16:49;;;;;;;12.03;8.87;;;;;;;;;;5019881;28;20191;-63
2020/12/20 04:19:18;;;;;;;11.00;9.33;;;;;;;;;;5020218;28;20202;-62
2020/12/20 04:21:48;;;;;;;12.47;9.37;;;;;;;;;;5015535;28;20239;-62
2020/12/20 04:24:33;;;;;;;12.50;9.40;;;;;;;;;;5013214;28;20219;-62
2020/12/20 04:26:59;;;;;;;12.40;9.77;;;;;;;;;;5011464;28;20262;-62
2020/12/20 04:29:34;;;;;;;11.07;9.20;;;;;;;;;;5026755;28;20695;-62
2020/12/20 04:32:03;;;;;;;10.63;8.80;;;;;;;;;;5013954;28;20199;-62
2020/12/20 04:34:30;;;;;;;11.10;9.50;;;;;;;;;;5016475;28;20205;-62
2020/12/20 04:36:57;;;;;;;11.77;9.03;;;;;;;;;;5013826;28;20186;-62
2020/12/20 04:39:45;;;;;;;13.57;9.90;;;;;;;;;;5009777;28;20226;-62
2020/12/20 04:42:13;;;;;;;10.53;9.27;;;;;;;;;;5016351;28;20232;-62
2020/12/20 04:44:39;;;;;;;11.57;7.67;;;;;;;;;;5015673;28;20236;-63
2020/12/20 04:47:07;;;;;;;9.93;8.70;;;;;;;;;;5014435;28;20932;-63
2020/12/20 04:49:44;;;;;;;10.70;9.10;;;;;;;;;;5008802;28;20230;-62
2020/12/20 04:52:17;;;;;;;12.13;9.43;;;;;;;;;;5015666;28;20198;-62
2020/12/20 04:54:44;;;;;;;11.50;8.80;;;;;;;;;;5009299;28;20602;-62
2020/12/20 04:57:15;;;;;;;11.97;9.53;;;;;;;;;;5009648;28;20310;-62
2020/12/20 04:59:43;;;;;;;10.30;9.07;;;;;;;;;;5007825;28;20206;-62
2020/12/20 05:02:11;;;;;;;10.43;8.60;;;;;;;;;;5016401;28;20194;-64
2020/12/20 05:04:37;;;;;;;10.33;8.23;;;;;;;;;;5016077;28;20240;-63
2020/12/20 05:07:04;;;;;;;10.00;8.27;;;;;;;;;;5014909;28;20661;-61
2020/12/20 05:09:47;;;;;;;10.97;8.97;;;;;;;;;;5016518;28;20971;-62
2020/12/20 05:12:30;;;;;;;12.00;8.40;;;;;;;;;;5016741;28;20702;-62
2020/12/20 05:15:21;;;;;;;10.23;8.30;;;;;;;;;;5012925;28;20218;-62
2020/12/20 05:18:06;;;;;;;10.43;8.40;;;;;;;;;;5018366;28;20287;-63
2020/12/20 05:20:39;;;;;;;11.13;8.80;;;;;;;;;;5002088;28;20560;-63
2020/12/20 05:23:08;;;;;;;11.23;8.93;;;;;;;;;;4986040;28;20231;-63
2020/12/20 05:25:35;;;;;;;10.63;8.63;;;;;;;;;;5016063;28;20198;-62
2020/12/20 05:28:27;;;;;;;9.07;7.60;;;;;;;;;;5003379;28;20221;-63
2020/12/20 05:31:06;;;;;;;10.37;8.40;;;;;;;;;;5006025;28;20207;-62
2020/12/20 05:33:37;;;;;;;11.23;8.33;;;;;;;;;;5009933;28;20672;-62
2020/12/20 05:36:32;;;;;;;12.17;9.03;;;;;;;;;;5001871;28;20219;-62
2020/12/20 05:39:22;;;;;;;12.10;9.40;;;;;;;;;;5004187;28;20207;-63
2020/12/20 05:42:11;;;;;;;10.47;8.33;;;;;;;;;;4975910;28;20711;-63
2020/12/20 05:44:38;;;;;;;10.33;8.23;;;;;;;;;;5015035;28;20286;-63
2020/12/20 05:47:09;;;;;;;12.37;8.93;;;;;;;;;;5014474;28;20201;-62
2020/12/20 05:49:41;;;;;;;10.43;9.33;;;;;;;;;;5007599;28;20600;-61
2020/12/20 05:52:12;;;;;;;10.73;8.90;;;;;;;;;;5015339;28;20193;-62
2020/12/20 05:54:42;;;;;;;12.87;10.43;;;;;;;;;;5009853;28;20215;-62
2020/12/20 05:57:08;;;;;;;11.67;8.80;;;;;;;;;;5001859;28;20643;-62
2020/12/20 05:59:33;;;;;;;11.97;9.30;;;;;;;;;;5003155;28;20662;-61
2020/12/20 06:02:00;;;;;;;12.63;10.07;;;;;;;;;;5002473;28;20272;-60
2020/12/20 06:04:26;;;;;;;11.33;9.13;;;;;;;;;;5005033;28;20220;-61
2020/12/20 06:06:55;;;;;;;17.67;13.43;;;;;;;;;;5016926;28;20219;-61
2020/12/20 06:09:23;;;;;;;15.57;13.23;;;;;;;;;;5012214;28;20297;-62
2020/12/20 06:11:51;;;;;;;41.97;35.83;;;;;;;;;;5000462;28;20856;-61
2020/12/20 06:14:18;;;;;;;17.90;13.73;;;;;;;;;;5010900;28;20277;-60
2020/12/20 06:16:43;;;;;;;13.90;10.97;;;;;;;;;;5012027;28;20434;-62
2020/12/20 06:19:10;;;;;;;12.57;10.77;;;;;;;;;;5029334;28;20760;-62
2020/12/20 06:21:57;;;;;;;11.57;10.37;;;;;;;;;;5024257;28;20570;-61
2020/12/20 06:24:26;;;;;;;13.80;11.60;;;;;;;;;;5029368;28;20686;-62
2020/12/20 06:26:53;;;;;;;13.13;11.63;;;;;;;;;;5027214;28;20295;-61
2020/12/20 06:29:18;;;;;;;14.43;12.10;;;;;;;;;;5031759;28;20192;-62
2020/12/20 06:31:43;;;;;;;13.33;11.10;;;;;;;;;;5032246;28;20212;-62
2020/12/20 06:34:13;;;;;;;13.23;11.80;;;;;;;;;;5030137;28;20209;-61
2020/12/20 06:36:39;;;;;;;15.47;11.80;;;;;;;;;;5034753;28;20196;-61
2020/12/20 06:39:04;;;;;;;12.87;11.20;;;;;;;;;;5038402;28;20715;-61
2020/12/20 06:41:33;;;;;;;14.87;11.43;;;;;;;;;;5036690;28;20269;-61
2020/12/20 06:43:58;;;;;;;13.60;12.10;;;;;;;;;;5031402;28;20205;-65
2020/12/20 06:46:37;;;;;;;13.97;12.13;;;;;;;;;;5035721;28;20212;-65
2020/12/20 06:49:22;;;;;;;13.43;11.63;;;;;;;;;;5036782;28;20181;-63
2020/12/20 06:51:48;;;;;;;13.60;11.40;;;;;;;;;;5025056;28;20207;-62
2020/12/20 06:54:23;;;;;;;13.73;12.20;;;;;;;;;;5030412;28;20207;-61
2020/12/20 06:57:07;;;;;;;14.70;11.90;;;;;;;;;;5016271;28;20186;-61
2020/12/20 06:59:42;;;;;;;14.33;12.73;;;;;;;;;;5021594;28;20253;-61
2020/12/20 07:02:08;;;;;;;14.13;12.23;;;;;;;;;;5051218;28;20202;-63
2020/12/20 07:04:42;;;;;;;14.40;12.90;;;;;;;;;;5038653;28;20228;-63
2020/12/20 07:07:08;;;;;;;14.07;12.57;;;;;;;;;;5031192;28;20575;-63
2020/12/20 07:09:33;;;;;;;15.10;12.47;;;;;;;;;;5034463;28;20299;-61
2020/12/20 07:11:59;;;;;;;15.27;13.07;;;;;;;;;;5033730;28;20647;-62
2020/12/20 07:14:25;;;;;;;16.60;13.70;;;;;;;;;;5038294;28;20854;-62
2020/12/20 07:16:50;;;;;;;16.40;13.53;;;;;;;;;;5025985;28;20193;-61
2020/12/20 07:19:34;;;;;;;15.63;12.77;;;;;;;;;;5025637;28;20283;-60
2020/12/20 07:21:59;;;;;;;14.17;12.60;;;;;;;;;;5014782;28;20527;-61
2020/12/20 07:24:29;;;;;;;17.10;14.07;;;;;;;;;;5027249;28;20212;-60
2020/12/20 07:26:56;;;;;;;16.57;13.93;;;;;;;;;;5037118;28;20204;-62
2020/12/20 07:29:21;;;;;;;15.00;13.40;;;;;;;;;;5040824;28;20180;-61
2020/12/20 07:31:50;;;;;;;17.00;13.97;;;;;;;;;;5032875;28;20197;-60
2020/12/20 07:34:15;;;;;;;14.93;13.33;;;;;;;;;;5040441;28;20338;-61
2020/12/20 07:36:40;;;;;;;15.20;13.60;;;;;;;;;;5029584;28;20183;-61
2020/12/20 07:39:06;;;;;;;17.37;14.63;;;;;;;;;;5035427;28;20251;-63
2020/12/20 07:41:32;;;;;;;17.00;14.87;;;;;;;;;;5037661;28;20220;-62
2020/12/20 07:43:59;;;;;;;17.60;14.77;;;;;;;;;;5040578;28;20920;-64
2020/12/20 07:46:24;;;;;;;17.37;14.33;;;;;;;;;;5024405;28;20211;-61
2020/12/20 07:48:51;;;;;;;18.73;15.10;;;;;;;;;;5033407;28;20180;-62
2020/12/20 07:51:20;;;;;;;16.17;13.93;;;;;;;;;;5024919;28;20566;-62
2020/12/20 07:53:53;;;;;;;18.53;16.17;;;;;;;;;;5026080;28;20756;-62
2020/12/20 07:56:25;;;;;;;21.37;16.07;;;;;;;;;;5032294;28;20198;-61
2020/12/20 07:58:51;;;;;;;18.63;15.70;;;;;;;;;;5027683;28;20225;-62
2020/12/20 08:01:16;;;;;;;17.87;15.20;;;;;;;;;;5025085;28;20277;-61
2020/12/20 08:03:42;;;;;;;18.27;15.90;;;;;;;;;;5029083;28;20217;-62
2020/12/20 08:06:08;;;;;;;17.53;15.40;;;;;;;;;;5029818;28;20292;-62
2020/12/20 08:08:33;;;;;;;16.90;14.37;;;;;;;;;;5031046;28;20187;-61
2020/12/20 08:11:01;;;;;;;18.10;15.33;;;;;;;;;;5049325;28;20603;-61
2020/12/20 08:13:27;;;;;;;17.00;14.67;;;;;;;;;;5039578;28;20317;-62
2020/12/20 08:15:52;;;;;;;17.17;14.57;;;;;;;;;;5038181;28;20263;-62
2020/12/20 08:18:18;;;;;;;17.33;14.70;;;;;;;;;;5030602;28;20584;-60
2020/12/20 08:20:43;;;;;;;18.63;15.43;;;;;;;;;;5018917;28;20189;-61
2020/12/20 08:23:09;;;;;;;16.93;14.77;;;;;;;;;;5021045;28;20199;-60
2020/12/20 08:25:35;;;;;;;17.40;14.93;;;;;;;;;;5030025;28;20244;-61
2020/12/20 08:28:00;;;;;;;16.77;14.97;;;;;;;;;;5032198;28;20210;-61
2020/12/20 08:30:25;;;;;;;23.17;19.20;;;;;;;;;;5035699;28;20753;-63
2020/12/20 08:32:51;;;;;;;18.10;13.70;;;;;;;;;;5038857;28;20279;-62
2020/12/20 08:35:23;;;;;;;20.13;17.10;;;;;;;;;;5039175;28;20218;-63
2020/12/20 08:37:53;;;;;;;18.30;15.77;;;;;;;;;;5029296;28;20347;-61
2020/12/20 08:40:19;;;;;;;18.43;15.83;;;;;;;;;;5037366;28;20204;-62
2020/12/20 08:42:46;;;;;;;17.00;14.67;;;;;;;;;;5024263;28;20196;-61
2020/12/20 08:45:19;;;;;;;23.90;18.10;;;;;;;;;;5032362;28;20631;-61
2020/12/20 08:47:44;;;;;;;38.33;24.83;;;;;;;;;;5041935;28;20213;-62
2020/12/20 08:50:10;;;;;;;17.90;15.93;;;;;;;;;;5039155;28;20250;-63
2020/12/20 08:52:36;;;;;;;18.17;15.20;;;;;;;;;;5018044;28;20181;-61
2020/12/20 08:55:03;;;;;;;20.40;16.97;;;;;;;;;;5033723;28;20216;-61
2020/12/20 08:57:29;;;;;;;18.43;15.53;;;;;;;;;;5039466;28;20289;-61
2020/12/20 08:59:55;;;;;;;16.37;14.60;;;;;;;;;;5037481;28;20631;-62
2020/12/20 09:02:24;;;;;;;15.67;13.30;;;;;;;;;;5037759;28;20206;-62
2020/12/20 09:04:56;;;;;;;16.67;13.23;;;;;;;;;;5031248;28;20209;-62
2020/12/20 09:07:35;;;;;;;18.57;15.53;;;;;;;;;;5030455;28;20256;-62
2020/12/20 09:10:05;;;;;;;18.30;15.30;;;;;;;;;;5027701;28;20185;-62
2020/12/20 09:12:30;;;;;;;17.70;15.33;;;;;;;;;;5033653;28;20653;-61
2020/12/20 09:15:00;;;;;;;17.57;15.10;;;;;;;;;;5028879;28;20213;-61
2020/12/20 09:17:29;;;;;;;16.87;14.77;;;;;;;;;;5033842;28;20200;-62
2020/12/20 09:19:55;;;;;;;17.33;14.73;;;;;;;;;;5029520;28;20217;-61
2020/12/20 09:22:21;;;;;;;16.70;14.90;;;;;;;;;;5023194;28;20207;-61
2020/12/20 09:24:47;;;;;;;17.33;14.83;;;;;;;;;;5029472;28;20958;-62
2020/12/20 09:27:12;;;;;;;17.77;13.03;;;;;;;;;;5022760;28;20223;-63
2020/12/20 09:29:37;;;;;;;18.90;15.77;;;;;;;;;;5039330;28;20587;-61
2020/12/20 09:32:09;;;;;;;18.63;15.57;;;;;;;;;;5032080;28;20196;-62
2020/12/20 09:34:34;;;;;;;16.97;14.63;;;;;;;;;;5022559;28;20217;-62
2020/12/20 09:37:03;;;;;;;14.93;13.33;;;;;;;;;;5023138;28;20571;-64
2020/12/20 09:39:29;;;;;;;16.93;13.73;;;;;;;;;;5023180;28;20226;-62
2020/12/20 09:41:54;;;;;;;15.90;13.83;;;;;;;;;;5034518;28;20259;-61
2020/12/20 09:44:19;;;;;;;16.63;14.83;;;;;;;;;;5029153;28;20221;-63
2020/12/20 09:46:45;;;;;;;16.03;14.33;;;;;;;;;;5029017;28;20257;-62
2020/12/20 09:49:10;;;;;;;15.53;13.87;;;;;;;;;;5030400;28;20858;-62
2020/12/20 09:51:35;;;;;;;17.50;14.50;;;;;;;;;;5030946;28;20199;-62
2020/12/20 09:54:00;;;;;;;14.13;12.53;;;;;;;;;;5024821;28;20212;-70
2020/12/20 09:56:26;;;;;;;16.13;14.13;;;;;;;;;;5027285;28;20211;-62
2020/12/20 09:58:51;;;;;;;15.70;14.05;;;;;;;;;;5026987;28;20198;-62
2020/12/20 10:01:17;;;;;;;17.03;14.00;;;;;;;;;;5024971;28;20203;-61
2020/12/20 10:03:42;;;;;;;19.60;15.17;;;;;;;;;;5037269;28;20296;-62
2020/12/20 10:06:07;;;;;;;15.10;13.50;;;;;;;;;;5018670;28;20199;-61
2020/12/20 10:08:33;;;;;;;16.53;14.30;;;;;;;;;;5030208;28;20202;-62
2020/12/20 10:10:58;;;;;;;17.67;14.73;;;;;;;;;;5037329;28;20220;-62
2020/12/20 10:13:23;;;;;;;17.47;14.73;;;;;;;;;;5026959;28;20302;-63
2020/12/20 10:15:49;;;;;;;15.17;13.57;;;;;;;;;;5022418;28;20642;-62
2020/12/20 10:18:14;;;;;;;15.43;13.33;;;;;;;;;;5026388;28;20272;-63
2020/12/20 10:20:39;;;;;;;16.60;13.40;;;;;;;;;;5029077;28;20211;-62
2020/12/20 10:23:05;;;;;;;16.30;14.03;;;;;;;;;;5025969;28;20175;-62
2020/12/20 10:25:31;;;;;;;15.10;13.50;;;;;;;;;;5022100;28;20186;-62
2020/12/20 10:27:56;;;;;;;17.33;14.40;;;;;;;;;;5031845;28;20594;-61
2020/12/20 10:30:22;;;;;;;16.20;13.63;;;;;;;;;;5028156;28;20229;-61
2020/12/20 10:32:47;;;;;;;16.30;13.13;;;;;;;;;;5032459;28;20190;-62
2020/12/20 10:35:16;;;;;;;15.40;13.33;;;;;;;;;;5038051;28;20293;-62
2020/12/20 10:37:42;;;;;;;12.77;11.03;;;;;;;;;;5035789;28;20201;-62
2020/12/20 10:40:07;;;;;;;11.70;9.63;;;;;;;;;;5030499;28;20248;-62
2020/12/20 10:42:32;;;;;;;13.80;12.30;;;;;;;;;;5027191;28;20183;-64
2020/12/20 10:44:58;;;;;;;15.67;12.53;;;;;;;;;;5036020;28;20637;-62
2020/12/20 10:47:23;;;;;;;13.97;12.47;;;;;;;;;;5028198;28;20214;-64
2020/12/20 10:49:49;;;;;;;17.13;15.27;;;;;;;;;;5038620;28;20182;-63
2020/12/20 10:52:14;;;;;;;18.27;15.50;;;;;;;;;;5037707;28;20546;-63
2020/12/20 10:54:39;;;;;;;14.80;12.30;;;;;;;;;;5030898;28;20394;-63
2020/12/20 10:57:05;;;;;;;15.05;12.50;;;;;;;;;;5029847;28;20215;-62
2020/12/20 10:59:31;;;;;;;15.75;13.10;;;;;;;;;;5031412;28;20192;-64
2020/12/20 11:01:57;;;;;;;13.95;11.88;;;;;;;;;;5034861;28;20191;-64
2020/12/20 11:04:23;;;;;;;14.60;12.50;;;;;;;;;;5036933;28;20607;-64
2020/12/20 11:06:49;;;;;;;12.90;11.00;;;;;;;;;;5032460;28;20219;-64
2020/12/20 11:09:14;;;;;;;13.05;11.35;;;;;;;;;;5032529;28;20184;-63
2020/12/20 11:11:41;;;;;;;15.07;11.73;;;;;;;;;;5035488;28;20988;-63
2020/12/20 11:14:06;;;;;;;12.40;11.10;;;;;;;;;;5028346;28;20204;-63
2020/12/20 11:16:31;;;;;;;12.83;10.83;;;;;;;;;;5036961;28;20763;-65
2020/12/20 11:18:57;;;;;;;12.27;10.57;;;;;;;;;;5037727;28;20764;-63
2020/12/20 11:21:22;;;;;;;12.23;10.68;;;;;;;;;;5023855;28;20227;-64
2020/12/20 11:23:48;;;;;;;11.80;10.57;;;;;;;;;;5025719;28;20212;-64
2020/12/20 11:26:14;;;;;;;12.70;11.13;;;;;;;;;;5027948;28;20212;-66
2020/12/20 11:28:40;;;;;;;12.23;10.33;;;;;;;;;;5033454;28;20192;-63
2020/12/20 11:31:06;;;;;;;11.70;9.63;;;;;;;;;;5027089;28;20187;-63
2020/12/20 11:33:32;;;;;;;11.45;9.02;;;;;;;;;;5032852;28;20214;-63
2020/12/20 11:35:57;;;;;;;11.27;9.93;;;;;;;;;;5037131;28;20199;-63
2020/12/20 11:38:22;;;;;;;11.90;10.60;;;;;;;;;;5030622;28;20195;-63
2020/12/20 11:40:48;;;;;;;11.00;9.10;;;;;;;;;;5029310;28;20282;-62
2020/12/20 11:43:13;;;;;;;11.93;10.38;;;;;;;;;;5037724;28;20179;-63
2020/12/20 11:45:39;;;;;;;14.10;10.55;;;;;;;;;;5034312;28;20190;-63
2020/12/20 11:48:04;;;;;;;12.07;10.50;;;;;;;;;;5033572;28;20690;-63
2020/12/20 11:50:29;;;;;;;10.83;9.67;;;;;;;;;;5016717;28;20195;-63
2020/12/20 11:52:55;;;;;;;12.07;10.77;;;;;;;;;;5027376;28;20269;-63
2020/12/20 11:55:20;;;;;;;10.90;9.70;;;;;;;;;;5024252;28;20218;-63
2020/12/20 11:57:45;;;;;;;11.25;9.45;;;;;;;;;;5040156;28;20290;-62
2020/12/20 12:00:10;;;;;;;12.35;10.43;;;;;;;;;;5038088;28;21094;-63
2020/12/20 12:02:38;;;;;;;10.57;9.48;;;;;;;;;;5037637;28;20203;-63
2020/12/20 12:05:04;;;;;;;10.43;9.20;;;;;;;;;;5024176;28;20218;-64
2020/12/20 12:07:30;;;;;;;10.70;9.48;;;;;;;;;;5037789;28;20262;-63
2020/12/20 12:09:55;;;;;;;11.77;9.03;;;;;;;;;;5038209;28;20195;-63
2020/12/20 12:12:21;;;;;;;13.43;9.87;;;;;;;;;;5032012;28;20187;-63
2020/12/20 12:14:46;;;;;;;11.68;9.85;;;;;;;;;;5031553;28;20216;-62
2020/12/20 12:17:12;;;;;;;9.27;8.17;;;;;;;;;;5024521;28;20222;-65
2020/12/20 12:19:37;;;;;;;10.83;9.33;;;;;;;;;;5030347;28;20198;-63
2020/12/20 12:22:02;;;;;;;11.90;9.53;;;;;;;;;;5004395;28;20234;-64
2020/12/20 12:24:27;;;;;;;11.80;9.50;;;;;;;;;;5038049;28;20217;-64
2020/12/20 12:26:53;;;;;;;11.88;9.20;;;;;;;;;;5030995;28;20237;-65
2020/12/20 12:29:18;;;;;;;10.97;8.90;;;;;;;;;;5030918;28;20682;-63
2020/12/20 12:31:44;;;;;;;12.63;9.30;;;;;;;;;;5030251;28;20557;-64
2020/12/20 12:34:09;;;;;;;11.90;9.00;;;;;;;;;;5031442;28;20207;-63
2020/12/20 12:36:34;;;;;;;10.73;8.68;;;;;;;;;;5032629;28;20268;-63
2020/12/20 12:39:02;;;;;;;12.10;8.85;;;;;;;;;;5039267;28;20193;-63
2020/12/20 12:41:30;;;;;;;12.02;9.63;;;;;;;;;;5036493;28;20200;-63
2020/12/20 12:43:56;;;;;;;12.35;10.05;;;;;;;;;;5030833;28;20225;-62
2020/12/20 12:46:21;;;;;;;12.68;9.10;;;;;;;;;;5024655;28;20223;-64
2020/12/20 12:48:46;;;;;;;10.40;8.43;;;;;;;;;;5027190;28;20219;-64
2020/12/20 12:51:12;;;;;;;12.88;11.10;;;;;;;;;;5034826;28;20191;-63
2020/12/20 12:53:38;;;;;;;15.57;13.98;;;;;;;;;;5037626;28;20200;-62
2020/12/20 12:56:09;;;;;;;15.60;13.97;;;;;;;;;;5033107;28;20898;-62
2020/12/20 12:58:35;;;;;;;17.63;15.57;;;;;;;;;;5021585;28;20195;-63
2020/12/20 13:01:00;;;;;;;13.13;11.13;;;;;;;;;;5022693;28;20195;-63
2020/12/20 13:03:25;;;;;;;10.33;9.27;;;;;;;;;;5037868;28;20203;-62
2020/12/20 13:05:51;;;;;;;11.77;9.68;;;;;;;;;;5030098;28;20187;-63
2020/12/20 13:08:16;;;;;;;14.20;9.73;;;;;;;;;;5030452;28;20204;-61
2020/12/20 13:10:43;;;;;;;11.77;10.00;;;;;;;;;;5031200;28;20199;-63
2020/12/20 13:13:08;;;;;;;10.63;9.23;;;;;;;;;;5040344;28;20657;-63
2020/12/20 13:15:48;;;;;;;11.17;9.40;;;;;;;;;;5104600;27;20475;-62
2020/12/20 13:18:13;;;;;;;10.80;9.70;;;;;;;;;;5077152;28;20182;-63
2020/12/20 13:20:39;;;;;;;10.90;8.98;;;;;;;;;;5085928;28;20198;-63
2020/12/20 13:23:04;;;;;;;10.35;9.25;;;;;;;;;;5085015;28;20193;-63
2020/12/20 13:25:30;;;;;;;10.25;9.15;;;;;;;;;;5070530;28;20574;-62
2020/12/20 13:27:55;;;;;;;10.55;8.93;;;;;;;;;;5062844;28;20193;-62
2020/12/20 13:30:21;;;;;;;13.38;9.57;;;;;;;;;;5068729;28;20186;-63
2020/12/20 13:32:46;;;;;;;11.43;9.75;;;;;;;;;;5079017;28;20334;-62
2020/12/20 13:35:12;;;;;;;11.82;10.25;;;;;;;;;;5080234;28;20213;-62
2020/12/20 13:37:37;;;;;;;10.25;9.18;;;;;;;;;;5051002;28;20753;-64
2020/12/20 13:40:02;;;;;;;11.48;10.15;;;;;;;;;;5059745;28;20198;-62
2020/12/20 13:42:28;;;;;;;11.10;9.93;;;;;;;;;;5067474;28;20179;-62
2020/12/20 13:44:53;;;;;;;12.70;9.65;;;;;;;;;;5076344;28;20212;-64
2020/12/20 13:47:21;;;;;;;11.10;9.88;;;;;;;;;;5074090;28;20206;-63
2020/12/20 13:49:46;;;;;;;11.57;9.98;;;;;;;;;;5063966;28;20267;-62
2020/12/20 13:52:11;;;;;;;10.60;9.02;;;;;;;;;;5063792;28;20718;-63
2020/12/20 13:54:36;;;;;;;11.48;10.27;;;;;;;;;;5066548;28;20253;-63
2020/12/20 13:57:02;;;;;;;11.20;10.00;;;;;;;;;;5074128;28;20280;-63
2020/12/20 13:59:27;;;;;;;10.80;9.70;;;;;;;;;;5075015;28;20186;-62
2020/12/20 14:01:55;;;;;;;11.30;10.10;;;;;;;;;;5074486;28;20174;-62
2020/12/20 14:04:20;;;;;;;11.50;10.30;;;;;;;;;;5061694;28;20207;-62
2020/12/20 14:06:46;;;;;;;12.45;10.93;;;;;;;;;;5068862;28;20192;-62
2020/12/20 14:09:12;;;;;;;23.45;20.48;;;;;;;;;;5067760;28;20559;-62
2020/12/20 14:11:37;;;;;;;17.75;15.95;;;;;;;;;;5075113;28;20244;-62
2020/12/20 14:14:03;;;;;;;12.68;11.13;;;;;;;;;;5067273;28;20221;-63
2020/12/20 14:16:28;;;;;;;13.27;10.57;;;;;;;;;;5062321;28;20194;-62
2020/12/20 14:18:53;;;;;;;12.60;11.30;;;;;;;;;;5073404;28;20190;-63
2020/12/20 14:21:19;;;;;;;13.52;11.27;;;;;;;;;;5059369;28;20187;-62
2020/12/20 14:23:45;;;;;;;11.50;10.30;;;;;;;;;;5067086;28;20655;-63
2020/12/20 14:26:13;;;;;;;11.33;9.63;;;;;;;;;;5066249;28;20218;-63
2020/12/20 14:28:39;;;;;;;11.50;10.20;;;;;;;;;;5040895;28;20194;-62
2020/12/20 14:31:04;;;;;;;11.68;10.07;;;;;;;;;;5048139;28;20177;-62
2020/12/20 14:33:29;;;;;;;11.73;10.05;;;;;;;;;;5051172;28;20207;-63